Terminal Aerodrome Forecast
Issued by NWS

Home | Current Version | Previous Version | Text Only | Print | Product List | Glossary On
Versions: 1 2 3 4 5 6 7 8 9 10 11 12 13 14 15 16 17 18 19 20
747
FTUS43 KDLH 071338 AAA
TAFHYR
TAF AMD
KHYR 071338Z 0714/0812 24014G20KT 5SM -SN OVC022
      TEMPO 0714/0716 1 1/2SM -SN BKN015
     FM071600 25015G24KT 2SM -SN BLSN OVC015
     FM072200 25012G20KT 4SM -SN BLSN OVC015
     FM080100 25010KT 3SM -SN BR OVC015=

USA.gov is the U.S. government's official web portal to all federal, state and local government web resources and services.